Time;durP1;ratioP1;P1;durP2;ratioP2;P2;SDS_P1;SDS_P2;PMS_P1;PMS_P2;Temp;Humidity;BMP_temperature;BMP_pressure;BME280_temperature;BME280_humidity;BME280_pressure;Samples;Min_cycle;Max_cycle;Signal;HPM_P1;HPM_P2
2022/09/30 00:01:40;;;;;;;1999.90;999.90;;;8.10;99.90;;;;;;5050107;28;20448;-70
2022/09/30 00:04:13;;;;;;;1999.90;999.90;;;8.10;99.90;;;;;;5050414;28;20488;-69
2022/09/30 00:06:40;;;;;;;1999.90;999.90;;;8.10;99.90;;;;;;5050253;28;20440;-69
2022/09/30 00:09:08;;;;;;;1999.90;999.90;;;8.10;99.90;;;;;;5031759;28;20460;-69
2022/09/30 00:11:38;;;;;;;1999.90;999.90;;;8.20;99.90;;;;;;5049964;28;20452;-69
2022/09/30 00:14:06;;;;;;;1999.90;999.90;;;8.30;99.90;;;;;;5049906;28;20486;-69
2022/09/30 00:16:36;;;;;;;1999.90;999.90;;;8.30;99.90;;;;;;5050231;28;20848;-69
2022/09/30 00:19:04;;;;;;;1999.90;999.90;;;8.40;99.90;;;;;;5050065;28;20849;-68
2022/09/30 00:21:33;;;;;;;1999.90;999.90;;;8.30;99.90;;;;;;5050108;28;20452;-69
2022/09/30 00:24:01;;;;;;;1999.90;999.90;;;8.40;99.90;;;;;;5049617;28;20993;-69
2022/09/30 00:26:28;;;;;;;1999.90;999.90;;;8.40;99.90;;;;;;5049999;28;20448;-69
2022/09/30 00:28:56;;;;;;;1999.90;999.90;;;8.50;99.90;;;;;;5049818;28;20510;-69
2022/09/30 00:31:24;;;;;;;1999.90;999.90;;;8.60;99.90;;;;;;5050111;28;20797;-68
2022/09/30 00:36:47;;;;;;;1999.90;999.90;;;8.60;99.90;;;;;;5085595;28;20953;-67
2022/09/30 00:39:17;;;;;;;1999.90;999.90;;;8.50;99.90;;;;;;5085937;28;20449;-68
2022/09/30 00:41:45;;;;;;;1999.90;999.90;;;8.50;99.90;;;;;;5084141;28;20451;-67
2022/09/30 00:44:44;;;;;;;1999.90;999.90;;;8.60;99.90;;;;;;5085253;28;20494;-68
2022/09/30 00:47:37;;;;;;;1999.90;999.90;;;8.60;99.90;;;;;;5085403;28;20430;-67
2022/09/30 00:50:13;;;;;;;1999.90;999.90;;;8.50;99.90;;;;;;5079239;28;20443;-67
2022/09/30 00:52:43;;;;;;;1999.90;999.90;;;8.50;99.90;;;;;;5086740;28;20450;-67
2022/09/30 00:55:18;;;;;;;1999.90;999.90;;;8.30;99.90;;;;;;5070201;28;20493;-68
2022/09/30 00:57:45;;;;;;;1999.90;999.90;;;8.30;99.90;;;;;;5086933;28;20446;-67
2022/09/30 01:00:12;;;;;;;1999.90;999.90;;;8.50;99.90;;;;;;5086965;28;20808;-67
2022/09/30 01:02:39;;;;;;;1999.90;999.90;;;8.60;99.90;;;;;;5086475;28;20449;-67
2022/09/30 01:05:08;;;;;;;1999.90;999.90;;;8.70;99.90;;;;;;5086843;28;20481;-67
2022/09/30 01:07:36;;;;;;;1999.90;999.90;;;8.70;99.90;;;;;;5086638;28;20450;-68
2022/09/30 01:10:05;;;;;;;1999.90;999.90;;;8.70;99.90;;;;;;5086619;28;20446;-69
2022/09/30 01:12:32;;;;;;;1999.90;999.90;;;8.70;99.90;;;;;;5093743;28;21228;-68
2022/09/30 01:15:00;;;;;;;1999.90;999.90;;;8.60;99.90;;;;;;5086482;28;21209;-68
2022/09/30 01:17:36;;;;;;;1999.90;999.90;;;8.70;99.90;;;;;;5086401;28;21196;-68
2022/09/30 01:20:53;;;;;;;1999.90;999.90;;;8.60;99.90;;;;;;5086450;28;20449;-68
2022/09/30 01:23:47;;;;;;;1999.90;999.90;;;8.50;99.90;;;;;;5086469;28;20461;-68
2022/09/30 01:26:33;;;;;;;1999.90;999.90;;;8.60;99.90;;;;;;5086345;28;20438;-68
2022/09/30 01:29:41;;;;;;;1999.90;999.90;;;8.60;99.90;;;;;;5086080;28;20449;-68
2022/09/30 01:32:18;;;;;;;1999.90;999.90;;;8.60;99.90;;;;;;5070276;28;20453;-67
2022/09/30 01:34:58;;;;;;;1999.90;999.90;;;8.70;99.90;;;;;;5085901;28;20474;-68
2022/09/30 01:37:39;;;;;;;1999.90;999.90;;;8.70;99.90;;;;;;5086307;28;20515;-69
2022/09/30 01:40:10;;;;;;;1999.90;999.90;;;8.70;99.90;;;;;;5086465;28;20875;-68
2022/09/30 01:42:48;;;;;;;1999.90;999.90;;;8.60;99.90;;;;;;5085944;28;20948;-68
2022/09/30 01:45:19;;;;;;;1999.90;999.90;;;8.60;99.90;;;;;;5085789;28;20964;-68
2022/09/30 01:47:50;;;;;;;1999.90;999.90;;;8.60;99.90;;;;;;5074516;28;20814;-68
2022/09/30 01:50:21;;;;;;;1999.90;999.90;;;8.60;99.90;;;;;;5072715;28;20451;-67
2022/09/30 01:52:56;;;;;;;1999.90;999.90;;;8.50;99.90;;;;;;5072258;28;20449;-68
2022/09/30 01:55:27;;;;;;;1999.90;999.90;;;8.40;99.90;;;;;;5071965;28;21215;-68
2022/09/30 01:57:58;;;;;;;1999.90;999.90;;;8.40;99.90;;;;;;5072422;28;20450;-68
2022/09/30 02:00:25;;;;;;;1999.90;999.90;;;8.40;99.90;;;;;;5072195;28;20431;-67
2022/09/30 02:02:57;;;;;;;1999.90;999.90;;;8.30;99.90;;;;;;5071762;28;20451;-68
2022/09/30 02:05:30;;;;;;;1999.90;999.90;;;8.30;99.90;;;;;;5072146;28;20550;-68
2022/09/30 02:08:01;;;;;;;1999.90;999.90;;;8.30;99.90;;;;;;5071971;28;20937;-68
2022/09/30 02:10:31;;;;;;;1999.90;999.90;;;8.30;99.90;;;;;;5072245;28;20440;-67
2022/09/30 02:13:04;;;;;;;1999.90;999.90;;;8.30;99.90;;;;;;5071848;28;20451;-68
2022/09/30 02:15:37;;;;;;;1999.90;999.90;;;8.30;99.90;;;;;;5071911;28;20482;-67
2022/09/30 02:18:12;;;;;;;1999.90;999.90;;;8.40;99.90;;;;;;5071977;28;20446;-67
2022/09/30 02:20:41;;;;;;;1999.90;999.90;;;8.50;99.90;;;;;;5071873;28;20955;-68
2022/09/30 02:23:14;;;;;;;1999.90;999.90;;;8.50;99.90;;;;;;5071439;28;20457;-67
2022/09/30 02:25:45;;;;;;;1999.90;999.90;;;8.50;99.90;;;;;;5071809;28;20972;-68
2022/09/30 02:28:17;;;;;;;1999.90;999.90;;;8.40;99.90;;;;;;5071624;28;21064;-68
2022/09/30 02:30:49;;;;;;;1999.90;999.90;;;8.40;99.90;;;;;;5071620;28;20447;-68
2022/09/30 02:33:20;;;;;;;1999.90;999.90;;;8.50;99.90;;;;;;5071436;28;20443;-68
2022/09/30 02:35:52;;;;;;;1999.90;999.90;;;8.40;99.90;;;;;;5071325;28;20486;-68
2022/09/30 02:38:23;;;;;;;1999.90;999.90;;;8.40;99.90;;;;;;5071594;28;20447;-68
2022/09/30 02:40:53;;;;;;;1999.90;999.90;;;8.30;99.90;;;;;;5071470;28;20447;-68
2022/09/30 02:43:21;;;;;;;1999.90;999.90;;;8.30;99.90;;;;;;5071238;28;20447;-68
2022/09/30 02:45:57;;;;;;;1999.90;999.90;;;8.30;99.90;;;;;;5071179;28;20841;-67
2022/09/30 02:48:34;;;;;;;1999.90;999.90;;;8.10;99.90;;;;;;5071290;28;20439;-68
2022/09/30 02:51:04;;;;;;;1999.90;999.90;;;8.10;99.90;;;;;;5070966;28;20454;-68
2022/09/30 02:53:37;;;;;;;1999.90;999.90;;;8.00;99.90;;;;;;5071033;28;20447;-69
2022/09/30 02:56:17;;;;;;;1999.90;999.90;;;8.00;99.90;;;;;;5071007;28;20486;-68
2022/09/30 02:58:45;;;;;;;1999.90;999.90;;;7.90;99.90;;;;;;5070031;28;20937;-68
2022/09/30 03:01:14;;;;;;;1999.90;999.90;;;7.90;99.90;;;;;;5070801;28;20446;-68
2022/09/30 03:03:45;;;;;;;1999.90;999.90;;;7.80;99.90;;;;;;5071052;28;20440;-68
2022/09/30 03:06:12;;;;;;;1999.90;999.90;;;7.90;99.90;;;;;;5070845;28;20446;-68
2022/09/30 03:08:39;;;;;;;1999.90;999.90;;;7.80;99.90;;;;;;5071044;28;20442;-67
2022/09/30 03:11:07;;;;;;;1999.90;999.90;;;7.80;99.90;;;;;;5070369;28;20443;-68
2022/09/30 03:14:04;;;;;;;1999.90;999.90;;;7.70;99.90;;;;;;5070901;28;20455;-68
2022/09/30 03:16:44;;;;;;;1999.90;999.90;;;7.70;99.90;;;;;;5070563;28;20470;-68
2022/09/30 03:19:30;;;;;;;1999.90;999.90;;;7.70;99.90;;;;;;5070794;28;20442;-68
2022/09/30 03:22:23;;;;;;;1999.90;999.90;;;7.70;99.90;;;;;;5050199;28;20509;-68
2022/09/30 03:25:19;;;;;;;1999.90;999.90;;;7.60;99.90;;;;;;5050751;28;20471;-68
2022/09/30 03:27:59;;;;;;;1999.90;999.90;;;7.60;99.90;;;;;;5059499;28;20530;-69
2022/09/30 03:30:27;;;;;;;1999.90;999.90;;;7.50;99.90;;;;;;5070495;28;20465;-68
2022/09/30 03:33:04;;;;;;;1999.90;999.90;;;7.40;99.90;;;;;;5069961;28;20535;-66
2022/09/30 03:35:43;;;;;;;1999.90;999.90;;;7.40;99.90;;;;;;5070289;28;20490;-68
2022/09/30 03:38:15;;;;;;;1999.90;999.90;;;7.40;99.90;;;;;;5070238;28;20454;-67
2022/09/30 03:40:48;;;;;;;1999.90;999.90;;;7.40;99.90;;;;;;5070629;28;20562;-67
2022/09/30 03:43:24;;;;;;;1999.90;999.90;;;7.30;99.90;;;;;;5070244;28;20450;-67
2022/09/30 03:45:58;;;;;;;1999.90;999.90;;;7.20;99.90;;;;;;5070508;28;20528;-67
2022/09/30 03:48:27;;;;;;;1999.90;999.90;;;7.20;99.90;;;;;;5070300;28;20443;-67
2022/09/30 03:50:56;;;;;;;1999.90;999.90;;;7.10;99.90;;;;;;5070214;28;20439;-67
2022/09/30 03:53:26;;;;;;;1999.90;999.90;;;7.00;99.90;;;;;;5070165;28;20979;-68
2022/09/30 03:55:53;;;;;;;1999.90;999.90;;;7.10;99.90;;;;;;5069741;28;20474;-68
2022/09/30 03:58:22;;;;;;;1999.90;999.90;;;7.10;99.90;;;;;;5070216;28;20504;-68
2022/09/30 04:00:51;;;;;;;1999.90;999.90;;;7.10;99.90;;;;;;5069544;28;20443;-68
2022/09/30 04:03:20;;;;;;;1999.90;999.90;;;7.00;99.90;;;;;;5069743;28;20449;-67
2022/09/30 04:05:47;;;;;;;1999.90;999.90;;;6.90;99.90;;;;;;5069825;28;20463;-68
2022/09/30 04:08:16;;;;;;;1999.90;999.90;;;6.90;99.90;;;;;;5069965;28;20439;-67
2022/09/30 04:10:43;;;;;;;1999.90;999.90;;;7.00;99.90;;;;;;5069364;28;20967;-68
2022/09/30 04:13:11;;;;;;;1999.90;999.90;;;7.00;99.90;;;;;;5069695;28;20477;-68
2022/09/30 04:15:39;;;;;;;1999.90;999.90;;;6.90;99.90;;;;;;5069445;28;20463;-68
2022/09/30 04:18:06;;;;;;;1999.90;999.90;;;7.00;99.90;;;;;;5069891;28;20454;-68
2022/09/30 04:20:33;;;;;;;1999.90;999.90;;;7.00;99.90;;;;;;5064512;28;20459;-68
2022/09/30 04:23:01;;;;;;;1999.90;999.90;;;7.00;99.90;;;;;;5064710;28;20817;-68
2022/09/30 04:25:29;;;;;;;1999.90;999.90;;;7.10;99.90;;;;;;5069632;28;20490;-67
2022/09/30 04:27:56;;;;;;;1999.90;999.90;;;6.90;99.90;;;;;;5069452;28;20451;-69
2022/09/30 04:30:23;;;;;;;1999.90;999.90;;;6.90;99.90;;;;;;5069661;28;20452;-67
2022/09/30 04:32:50;;;;;;;1999.90;999.90;;;6.90;99.90;;;;;;5069573;28;20451;-66
2022/09/30 04:35:16;;;;;;;1999.90;999.90;;;6.90;99.90;;;;;;5069087;28;20505;-66
2022/09/30 04:37:44;;;;;;;1999.90;999.90;;;6.80;99.90;;;;;;5069194;28;21023;-68
2022/09/30 04:40:11;;;;;;;1999.90;999.90;;;6.70;99.90;;;;;;5066806;28;20456;-71
2022/09/30 04:42:41;;;;;;;1999.90;999.90;;;6.70;99.90;;;;;;5068009;28;20439;-68
2022/09/30 04:45:10;;;;;;;1999.90;999.90;;;6.60;99.90;;;;;;5069083;28;21004;-69
2022/09/30 04:47:36;;;;;;;1999.90;999.90;;;6.60;99.90;;;;;;5069334;28;20439;-67
2022/09/30 04:50:03;;;;;;;1999.90;999.90;;;6.60;99.90;;;;;;5069383;28;20446;-67
2022/09/30 04:52:30;;;;;;;1999.90;999.90;;;6.70;99.90;;;;;;5067046;28;20451;-68
2022/09/30 04:54:58;;;;;;;1999.90;999.90;;;6.70;99.90;;;;;;5059427;28;20895;-68
2022/09/30 04:57:26;;;;;;;1999.90;999.90;;;6.60;99.90;;;;;;5059587;28;20543;-68
2022/09/30 04:59:54;;;;;;;1999.90;999.90;;;6.50;99.90;;;;;;5069385;28;20458;-67
2022/09/30 05:02:20;;;;;;;1999.90;999.90;;;6.40;99.90;;;;;;5060829;28;20462;-67
2022/09/30 05:04:47;;;;;;;1999.90;999.90;;;6.40;99.90;;;;;;5060871;28;20716;-68
2022/09/30 05:07:14;;;;;;;1999.90;999.90;;;6.40;99.90;;;;;;5064688;28;20827;-67
2022/09/30 05:09:40;;;;;;;1999.90;999.90;;;6.50;99.90;;;;;;5054407;28;21005;-67
2022/09/30 05:12:07;;;;;;;1999.90;999.90;;;6.40;99.90;;;;;;5053367;28;20452;-67
2022/09/30 05:14:34;;;;;;;1999.90;999.90;;;6.30;99.90;;;;;;5056416;28;21555;-67
2022/09/30 05:17:03;;;;;;;1999.90;999.90;;;6.40;99.90;;;;;;5060132;28;21009;-67
2022/09/30 05:19:29;;;;;;;1999.90;999.90;;;6.50;99.90;;;;;;5062769;28;20458;-68
2022/09/30 05:21:56;;;;;;;1999.90;999.90;;;6.60;99.90;;;;;;5063946;28;20445;-68
2022/09/30 05:24:23;;;;;;;1999.90;999.90;;;6.50;99.90;;;;;;5061780;28;20855;-68
2022/09/30 05:26:50;;;;;;;1999.90;999.90;;;6.50;99.90;;;;;;5060506;28;20439;-68
2022/09/30 05:29:17;;;;;;;1999.90;999.90;;;6.50;99.90;;;;;;5063085;28;20447;-67
2022/09/30 05:31:43;;;;;;;1999.90;999.90;;;6.50;99.90;;;;;;5060873;28;20450;-68
2022/09/30 05:34:11;;;;;;;1999.90;999.90;;;6.40;99.90;;;;;;5072529;28;20454;-68
2022/09/30 05:36:38;;;;;;;1999.90;999.90;;;6.40;99.90;;;;;;5072585;28;20486;-68
2022/09/30 05:39:05;;;;;;;1999.90;999.90;;;6.50;99.90;;;;;;5072585;28;20454;-68
2022/09/30 05:41:32;;;;;;;1999.90;999.90;;;6.60;99.90;;;;;;5072611;28;20451;-68
2022/09/30 05:44:00;;;;;;;1999.90;999.90;;;6.50;99.90;;;;;;5072455;28;20467;-68
2022/09/30 05:46:27;;;;;;;1999.90;999.90;;;6.50;99.90;;;;;;5073304;28;20483;-68
2022/09/30 05:48:54;;;;;;;1999.90;999.90;;;6.40;99.90;;;;;;5075177;28;20443;-67
2022/09/30 05:51:22;;;;;;;1999.90;999.90;;;6.50;99.90;;;;;;5075142;28;20447;-67
2022/09/30 05:53:50;;;;;;;1999.90;999.90;;;6.50;99.90;;;;;;5072622;28;20458;-67
2022/09/30 05:56:17;;;;;;;1999.90;999.90;;;6.50;99.90;;;;;;5072590;28;20867;-67
2022/09/30 05:58:46;;;;;;;1999.90;999.90;;;6.50;99.90;;;;;;5072300;28;20453;-69
2022/09/30 06:01:14;;;;;;;1999.90;999.90;;;6.50;99.90;;;;;;5072457;28;20473;-68
2022/09/30 06:03:41;;;;;;;1999.90;999.90;;;6.60;99.90;;;;;;5072384;28;20450;-67
2022/09/30 06:06:08;;;;;;;1999.90;999.90;;;6.60;99.90;;;;;;5072059;28;20454;-67
2022/09/30 06:08:37;;;;;;;1999.90;999.90;;;6.60;99.90;;;;;;5072644;28;20447;-67
2022/09/30 06:11:10;;;;;;;1999.90;999.90;;;6.60;99.90;;;;;;5072177;28;20447;-68
2022/09/30 06:13:38;;;;;;;1999.90;999.90;;;6.60;99.90;;;;;;5072273;28;20478;-67
2022/09/30 06:16:06;;;;;;;1999.90;999.90;;;6.60;99.90;;;;;;5072049;28;20462;-68
2022/09/30 06:18:32;;;;;;;1999.90;999.90;;;6.70;99.90;;;;;;5072398;28;20451;-67
2022/09/30 06:21:01;;;;;;;1999.90;999.90;;;6.80;99.90;;;;;;5071882;28;20454;-68
2022/09/30 06:23:28;;;;;;;1999.90;999.90;;;6.90;99.90;;;;;;5071942;28;20539;-68
2022/09/30 06:25:56;;;;;;;1999.90;999.90;;;7.00;99.90;;;;;;5071975;28;20468;-69
2022/09/30 06:28:26;;;;;;;1999.90;999.90;;;7.20;99.90;;;;;;5072305;28;20449;-68
2022/09/30 06:30:53;;;;;;;1999.90;999.90;;;7.40;99.90;;;;;;5071852;28;20451;-67
2022/09/30 06:33:21;;;;;;;1999.90;999.90;;;7.70;99.90;;;;;;5071553;28;20478;-68
2022/09/30 06:35:48;;;;;;;1999.90;999.90;;;7.80;99.90;;;;;;5071685;28;20951;-68
2022/09/30 06:38:15;;;;;;;1999.90;999.90;;;7.80;99.90;;;;;;5071811;28;20475;-68
2022/09/30 06:40:42;;;;;;;1999.90;999.90;;;7.80;99.90;;;;;;5071734;28;20457;-69
2022/09/30 06:43:11;;;;;;;1999.90;999.90;;;7.90;99.90;;;;;;5071494;28;20443;-68
2022/09/30 06:45:38;;;;;;;1999.90;999.90;;;7.90;99.90;;;;;;5071319;28;21038;-68
2022/09/30 06:48:07;;;;;;;1999.90;999.90;;;8.00;99.90;;;;;;5071622;28;20447;-67
2022/09/30 06:50:34;;;;;;;1999.90;999.90;;;8.10;99.90;;;;;;5071590;28;20487;-68
2022/09/30 06:53:04;;;;;;;1999.90;999.90;;;8.10;99.90;;;;;;5071123;28;20949;-68
2022/09/30 06:55:32;;;;;;;1999.90;999.90;;;8.30;99.90;;;;;;5071389;28;21021;-67
2022/09/30 06:57:59;;;;;;;1999.90;999.90;;;8.50;99.90;;;;;;5071151;28;20479;-67
2022/09/30 07:00:27;;;;;;;1999.90;999.90;;;8.60;99.90;;;;;;5071232;28;20470;-69
2022/09/30 07:02:55;;;;;;;1999.90;999.90;;;8.80;99.90;;;;;;5071041;28;20845;-68
2022/09/30 07:05:24;;;;;;;1999.90;999.90;;;8.90;99.90;;;;;;5071437;28;20470;-68
2022/09/30 07:07:51;;;;;;;1999.90;999.90;;;8.90;99.90;;;;;;5070978;28;20570;-68
2022/09/30 07:10:18;;;;;;;1999.90;999.90;;;9.00;99.90;;;;;;5071109;28;20455;-69
2022/09/30 07:12:44;;;;;;;1999.90;999.90;;;9.10;99.90;;;;;;5070871;28;20447;-68
2022/09/30 07:15:11;;;;;;;1999.90;999.90;;;9.20;99.90;;;;;;5071492;28;20465;-68
2022/09/30 07:17:39;;;;;;;1999.90;999.90;;;9.30;99.90;;;;;;5071536;28;20482;-68
2022/09/30 07:20:08;;;;;;;1999.90;999.90;;;9.40;99.90;;;;;;5071416;28;20447;-69
2022/09/30 07:22:34;;;;;;;1999.90;999.90;;;9.50;99.90;;;;;;5070768;28;21002;-68
2022/09/30 07:25:03;;;;;;;1999.90;999.90;;;9.60;99.90;;;;;;5070986;28;20882;-68
2022/09/30 07:27:32;;;;;;;1999.90;999.90;;;9.70;99.90;;;;;;5071119;28;20443;-67
2022/09/30 07:30:01;;;;;;;1999.90;999.90;;;9.80;99.90;;;;;;5071003;28;20466;-68
2022/09/30 07:32:27;;;;;;;1999.90;999.90;;;9.80;99.90;;;;;;5070411;28;21045;-68
2022/09/30 07:34:56;;;;;;;1999.90;999.90;;;9.80;99.90;;;;;;5070825;28;20478;-70
2022/09/30 07:37:24;;;;;;;1999.90;999.90;;;9.80;99.90;;;;;;5070603;28;20562;-68
2022/09/30 07:39:51;;;;;;;1999.90;999.90;;;9.80;99.90;;;;;;5070597;28;20811;-69
2022/09/30 07:42:21;;;;;;;1999.90;999.90;;;10.00;99.90;;;;;;5070622;28;20443;-67
2022/09/30 07:44:50;;;;;;;1999.90;999.90;;;10.00;99.90;;;;;;5070126;28;20529;-68
2022/09/30 07:47:17;;;;;;;1999.90;999.90;;;10.20;99.90;;;;;;5070887;28;20491;-68
2022/09/30 07:49:44;;;;;;;1999.90;999.90;;;10.40;99.90;;;;;;5071110;28;20462;-67
2022/09/30 07:52:13;;;;;;;1999.90;999.90;;;10.50;99.90;;;;;;5070490;28;20526;-67
2022/09/30 07:54:41;;;;;;;1999.90;999.90;;;10.70;99.90;;;;;;5070621;28;20471;-67
2022/09/30 07:57:08;;;;;;;1999.90;999.90;;;10.90;99.90;;;;;;5070785;28;20524;-67
2022/09/30 07:59:37;;;;;;;1999.90;999.90;;;11.20;99.90;;;;;;5070969;28;20794;-67
2022/09/30 08:02:04;;;;;;;1999.90;999.90;;;11.40;99.90;;;;;;5069162;28;20445;-67
2022/09/30 08:04:31;;;;;;;1999.90;999.90;;;11.70;99.90;;;;;;5070567;28;20459;-67
2022/09/30 08:07:00;;;;;;;1999.90;999.90;;;12.00;99.90;;;;;;5070142;28;20439;-67
2022/09/30 08:09:29;;;;;;;1999.90;999.90;;;12.10;99.90;;;;;;5070413;28;20438;-67
2022/09/30 08:11:57;;;;;;;1999.90;999.90;;;12.30;99.90;;;;;;5069991;28;20436;-67
2022/09/30 08:14:26;;;;;;;1999.90;999.90;;;12.40;99.90;;;;;;5069600;28;20459;-67
2022/09/30 08:16:54;;;;;;;1999.90;999.90;;;12.50;99.90;;;;;;5069472;28;20447;-67
2022/09/30 08:19:22;;;;;;;1999.90;999.90;;;12.60;99.90;;;;;;5069543;28;20555;-67
2022/09/30 08:21:51;;;;;;;1999.90;999.90;;;12.60;99.90;;;;;;5069383;28;20932;-66
2022/09/30 08:24:18;;;;;;;1999.90;999.90;;;12.80;99.90;;;;;;5069659;28;20474;-66
2022/09/30 08:26:46;;;;;;;1999.90;999.90;;;12.90;99.90;;;;;;5069601;28;20792;-66
2022/09/30 08:29:13;;;;;;;1999.90;999.90;;;12.60;99.90;;;;;;5069695;28;20458;-66
2022/09/30 08:31:41;;;;;;;1999.90;999.90;;;12.30;99.90;;;;;;5069199;28;20470;-66
2022/09/30 08:34:08;;;;;;;1999.90;999.90;;;12.20;99.90;;;;;;5069400;28;20470;-66
2022/09/30 08:36:35;;;;;;;1999.90;999.90;;;12.10;99.90;;;;;;5069496;28;20459;-66
2022/09/30 08:39:01;;;;;;;1999.90;999.90;;;12.00;99.90;;;;;;5069595;28;20478;-67
2022/09/30 08:41:45;;;;;;;1999.90;999.90;;;11.70;99.90;;;;;;5069471;28;20443;-66
2022/09/30 08:44:26;;;;;;;1999.90;999.90;;;11.50;99.90;;;;;;5069436;28;20603;-66
2022/09/30 08:47:00;;;;;;;1999.90;999.90;;;11.60;99.90;;;;;;5069650;28;20447;-66
2022/09/30 08:49:49;;;;;;;1999.90;999.90;;;11.90;99.90;;;;;;5069529;28;20447;-66
2022/09/30 08:52:20;;;;;;;1999.90;999.90;;;12.10;99.90;;;;;;5069145;28;20443;-66
2022/09/30 08:54:51;;;;;;;1999.90;999.90;;;11.90;99.90;;;;;;5069325;28;20471;-66
2022/09/30 08:57:20;;;;;;;1999.90;999.90;;;11.90;99.90;;;;;;5071519;28;20945;-67
2022/09/30 08:59:50;;;;;;;1999.90;999.90;;;11.90;99.90;;;;;;5073668;28;20820;-67
2022/09/30 09:02:22;;;;;;;1999.90;999.90;;;11.80;99.90;;;;;;5073348;28;20945;-67
2022/09/30 09:04:51;;;;;;;1999.90;999.90;;;11.80;99.90;;;;;;5073395;28;20836;-67
2022/09/30 09:07:32;;;;;;;1999.90;999.90;;;11.80;99.90;;;;;;5073366;28;20517;-67
2022/09/30 09:10:10;;;;;;;1999.90;999.90;;;11.80;99.90;;;;;;5073565;28;20450;-67
2022/09/30 09:12:44;;;;;;;1999.90;999.90;;;11.80;99.90;;;;;;5073213;28;20470;-67
2022/09/30 09:15:27;;;;;;;1999.90;999.90;;;11.80;99.90;;;;;;5073135;28;20543;-67
2022/09/30 09:18:14;;;;;;;1999.90;999.90;;;11.90;99.90;;;;;;5073471;28;20474;-67
2022/09/30 09:20:55;;;;;;;1999.90;999.90;;;12.10;99.90;;;;;;5072967;28;20449;-67
2022/09/30 09:23:22;;;;;;;1999.90;999.90;;;12.50;99.90;;;;;;5072953;28;20450;-67
2022/09/30 09:25:51;;;;;;;1999.90;999.90;;;12.80;99.90;;;;;;5072845;28;20846;-67
2022/09/30 09:28:27;;;;;;;1999.90;999.90;;;13.20;99.90;;;;;;5072893;28;20951;-67
2022/09/30 09:30:59;;;;;;;1999.90;999.90;;;13.40;99.90;;;;;;5072917;28;20819;-67
2022/09/30 09:33:29;;;;;;;1999.90;999.90;;;13.70;99.90;;;;;;5072822;28;20871;-67
2022/09/30 09:36:07;;;;;;;1999.90;999.90;;;14.00;99.90;;;;;;5072358;28;20471;-67
2022/09/30 09:38:42;;;;;;;1999.90;999.90;;;14.00;99.90;;;;;;5072590;28;20489;-67
2022/09/30 09:41:18;;;;;;;1999.90;999.90;;;13.70;99.90;;;;;;5072990;28;20451;-66
2022/09/30 09:43:52;;;;;;;1999.90;999.90;;;13.70;99.90;;;;;;5070944;28;20448;-67
2022/09/30 09:46:24;;;;;;;1999.90;999.90;;;14.10;99.90;;;;;;5067423;28;20959;-67
2022/09/30 09:49:27;;;;;;;1999.90;999.90;;;14.60;99.90;;;;;;5072286;28;20423;-67
2022/09/30 09:52:05;;;;;;;1999.90;999.90;;;15.10;99.90;;;;;;5072306;28;20465;-67
2022/09/30 09:54:35;;;;;;;1999.90;999.90;;;15.30;99.90;;;;;;5072625;28;20842;-67
2022/09/30 09:57:08;;;;;;;1999.90;999.90;;;15.60;99.90;;;;;;5072622;28;20462;-67
2022/09/30 09:59:34;;;;;;;1999.90;999.90;;;15.80;99.90;;;;;;5072475;28;20478;-67
2022/09/30 10:02:03;;;;;;;1999.90;999.90;;;16.00;99.90;;;;;;5072407;28;20451;-67
2022/09/30 10:04:31;;;;;;;1999.90;999.90;;;16.20;99.90;;;;;;5072648;28;20478;-67
2022/09/30 10:07:00;;;;;;;1999.90;999.90;;;16.10;99.90;;;;;;5069485;28;20483;-67
2022/09/30 10:09:35;;;;;;;1999.90;999.90;;;16.10;99.90;;;;;;5071840;28;20448;-67
2022/09/30 10:12:28;;;;;;;1999.90;999.90;;;16.30;99.90;;;;;;5071255;28;20453;-66
2022/09/30 10:15:04;;;;;;;1999.90;999.90;;;16.10;99.90;;;;;;5072283;28;20473;-67
2022/09/30 10:17:35;;;;;;;1999.90;999.90;;;15.80;99.90;;;;;;5072104;28;20458;-66
2022/09/30 10:20:08;;;;;;;1999.90;999.90;;;16.10;99.90;;;;;;5072198;28;20821;-67
2022/09/30 10:22:35;;;;;;;1999.90;999.90;;;16.60;99.90;;;;;;5071665;28;20458;-67
2022/09/30 10:25:22;;;;;;;1999.90;999.90;;;17.00;99.90;;;;;;5069967;28;20490;-66
2022/09/30 10:27:53;;;;;;;1999.90;999.90;;;17.20;99.90;;;;;;5067412;28;20443;-67
2022/09/30 10:30:42;;;;;;;1999.90;999.90;;;17.50;99.90;;;;;;5071893;28;20454;-66
2022/09/30 10:33:18;;;;;;;1999.90;999.90;;;18.20;99.90;;;;;;5071698;28;20439;-66
2022/09/30 10:35:53;;;;;;;1999.90;999.90;;;18.90;99.90;;;;;;5071529;28;20513;-67
2022/09/30 10:38:20;;;;;;;1999.90;999.90;;;19.30;99.90;;;;;;5066018;28;20479;-66
2022/09/30 10:40:50;;;;;;;1999.90;999.90;;;19.30;99.90;;;;;;5062502;28;21220;-67
2022/09/30 10:43:25;;;;;;;1999.90;999.90;;;19.40;99.90;;;;;;5048017;28;21260;-66
2022/09/30 10:45:52;;;;;;;1999.90;999.90;;;19.90;99.90;;;;;;5048618;28;20473;-67
2022/09/30 10:48:24;;;;;;;1999.90;999.90;;;20.00;99.90;;;;;;5050857;28;20488;-67
2022/09/30 10:50:53;;;;;;;1999.90;999.90;;;20.20;99.90;;;;;;5050734;28;20450;-69
2022/09/30 10:53:23;;;;;;;1999.90;999.90;;;20.70;99.90;;;;;;5050567;28;21172;-70
2022/09/30 10:55:50;;;;;;;1999.90;999.90;;;21.10;99.90;;;;;;5050290;28;20471;-69
2022/09/30 10:58:29;;;;;;;1999.90;999.90;;;21.60;99.90;;;;;;5050330;28;20557;-69
2022/09/30 11:01:00;;;;;;;1999.90;999.90;;;22.30;99.90;;;;;;5050222;28;20444;-69
2022/09/30 11:03:34;;;;;;;1999.90;999.90;;;22.70;96.70;;;;;;5050399;28;20448;-70
2022/09/30 11:06:01;;;;;;;1999.90;999.90;;;23.20;92.40;;;;;;5051149;28;20813;-69
2022/09/30 11:08:35;;;;;;;1999.90;999.90;;;22.90;93.00;;;;;;5051465;28;20440;-69
2022/09/30 11:11:09;;;;;;;1999.90;999.90;;;23.20;93.70;;;;;;5050622;28;20447;-70
2022/09/30 11:13:39;;;;;;;1999.90;999.90;;;23.50;91.20;;;;;;5050475;28;20534;-70
2022/09/30 11:16:16;;;;;;;1999.90;999.90;;;23.60;89.50;;;;;;5052320;28;20508;-69
2022/09/30 11:18:50;;;;;;;1999.90;999.90;;;23.60;87.50;;;;;;5064572;28;20487;-69
2022/09/30 11:21:21;;;;;;;1999.90;999.90;;;24.00;90.40;;;;;;5069966;28;20789;-70
2022/09/30 11:23:53;;;;;;;1999.90;999.90;;;24.40;84.60;;;;;;5070452;28;20466;-69
2022/09/30 11:26:33;;;;;;;1999.90;999.90;;;24.80;84.50;;;;;;5070293;28;20458;-70
2022/09/30 11:29:25;;;;;;;1999.90;999.90;;;25.40;84.20;;;;;;5070226;28;20449;-70
2022/09/30 11:31:59;;;;;;;1999.90;999.90;;;26.00;81.80;;;;;;5070121;28;20447;-70
2022/09/30 11:34:40;;;;;;;1999.90;999.90;;;26.60;80.50;;;;;;5070265;28;20470;-70
2022/09/30 11:37:17;;;;;;;1999.90;999.90;;;26.80;78.10;;;;;;5070093;28;20451;-70
2022/09/30 11:40:00;;;;;;;1999.90;999.90;;;26.50;73.00;;;;;;5070147;28;20490;-69
2022/09/30 11:42:36;;;;;;;1999.90;999.90;;;27.00;69.90;;;;;;5069790;28;20770;-70
2022/09/30 11:45:12;;;;;;;1999.90;999.90;;;26.90;68.10;;;;;;5070185;28;20467;-70
2022/09/30 11:47:53;;;;;;;1999.90;999.90;;;26.80;70.00;;;;;;5070048;28;20445;-69
2022/09/30 11:50:33;;;;;;;1999.90;999.90;;;27.20;68.00;;;;;;5070286;28;20951;-70
2022/09/30 11:53:11;;;;;;;1999.90;999.90;;;27.70;64.70;;;;;;5070179;28;20450;-69
2022/09/30 11:55:49;;;;;;;1999.90;999.90;;;28.00;64.70;;;;;;5066749;28;20518;-70
2022/09/30 11:58:19;;;;;;;1999.90;999.90;;;28.10;63.10;;;;;;5069476;28;20478;-69
2022/09/30 12:00:52;;;;;;;1999.90;999.90;;;27.60;61.00;;;;;;5069869;28;20447;-69
2022/09/30 12:03:24;;;;;;;1999.90;999.90;;;27.90;65.40;;;;;;5069328;28;20451;-70
2022/09/30 12:05:56;;;;;;;1999.90;999.90;;;28.50;62.70;;;;;;5062868;28;20471;-69
2022/09/30 12:08:29;;;;;;;1999.90;999.90;;;29.20;61.80;;;;;;5067848;28;20440;-69
2022/09/30 12:10:59;;;;;;;1999.90;999.90;;;29.90;55.00;;;;;;5070215;28;20450;-69
2022/09/30 12:13:31;;;;;;;1999.90;999.90;;;29.90;53.40;;;;;;5068125;28;21613;-70
2022/09/30 12:15:59;;;;;;;1999.90;999.90;;;29.70;56.10;;;;;;5067097;28;20459;-69
2022/09/30 12:18:31;;;;;;;1999.90;999.90;;;30.20;56.40;;;;;;5068631;28;20479;-70
2022/09/30 12:21:02;;;;;;;1999.90;999.90;;;29.70;53.40;;;;;;5064614;28;20448;-69
2022/09/30 12:23:33;;;;;;;1999.90;999.90;;;27.00;55.70;;;;;;5063888;28;20456;-70
2022/09/30 12:26:02;;;;;;;1999.90;999.90;;;26.60;57.20;;;;;;5066494;28;20500;-70
2022/09/30 12:31:50;;;;;;;1999.90;999.90;;;24.30;63.90;;;;;;5056352;28;20447;-70